• Join FlightAware (Why Join?)
  • Login
  • US Flag 
10:36PM EDT


 

Airport Tracker/Info


-or-


 

Live Flight TrackerFlight Track Log ✈ N926AD ✈ 03-Aug-2013 ✈ CYYR - BGBW / UAK

Flight Track Log - Related Links

Times and Time Zones

All times are in EDT time to prevent confusion due to time zone crossing. See the N926AD flight status page for this flight to view local times or setup timezone preferences in your user account.

Time Position Orientation Groundspeed Altitude Reporting Facility
EDT Latitude Longitude Course Direction KTS MPH feet Rate Location/Type
05:17AM 53.3500 -60.3333 40° Northeast 140 161 1,600  Level Gander Center
05:18AM 53.3833 -60.2667 50° Northeast 190 219 2,700 1,020 Climbing Gander Center
05:19AM 53.4000 -60.2167 61° Northeast 200 230 3,700 1,200 Climbing Gander Center
05:20AM 53.4500 -60.1667 31° Northeast 190 219 5,100 1,380 Climbing Gander Center
05:21AM 53.4833 -60.1000 50° Northeast 190 219 6,500 1,080 Climbing Gander Center
05:22AM 53.4833 -60.0167 90° East 180 207 7,300 1,500 Climbing Gander Center
05:23AM 53.6243 -59.9955 40° Northeast  Level Estimated
05:24AM 53.5833 -59.9667 17° North 190 219 10,100  Level Gander Center
05:25AM 53.6333 -59.9000 38° Northeast 190 219 11,500 1,380 Climbing Gander Center
05:26AM 53.6667 -59.8500 42° Northeast 190 219 12,900 1,380 Climbing Gander Center
05:27AM 53.7167 -59.7833 38° Northeast 180 207 14,300 1,260 Climbing Gander Center
05:28AM 53.7500 -59.7333 42° Northeast 170 196 15,500 1,140 Climbing Gander Center
05:29AM 53.7833 -59.6667 50° Northeast 190 219 16,600 960 Climbing Gander Center
05:30AM 53.8333 -59.6167 31° Northeast 200 230 17,500 1,020 Climbing Gander Center
05:31AM 53.8833 -59.5500 38° Northeast 210 242 18,700 1,080 Climbing Gander Center
05:32AM 53.9167 -59.4667 56° Northeast 220 253 19,700 960 Climbing Gander Center
05:33AM 53.9667 -59.4000 38° Northeast 220 253 20,700 900 Climbing Gander Center
05:34AM 54.0167 -59.3500 30° Northeast 220 253 21,500 720 Climbing Gander Center
05:35AM 54.0667 -59.2833 38° Northeast 220 253 22,200 720 Climbing Gander Center
05:36AM 54.1167 -59.2000 44° Northeast 230 265 23,000 720 Climbing Gander Center
05:37AM 54.1500 -59.1500 41° Northeast 220 253 23,700 720 Climbing Gander Center
05:38AM 54.2000 -59.0833 38° Northeast 210 242 24,500 600 Climbing Gander Center
05:39AM 54.2500 -59.0000 44° Northeast 220 253 25,000 540 Climbing Gander Center
05:40AM 54.3000 -58.9333 38° Northeast 230 265 25,600 480 Climbing Gander Center
05:41AM 54.3333 -58.8500 56° Northeast 240 276 26,000 480 Climbing Gander Center
05:42AM 54.3833 -58.7500 49° Northeast 250 288 26,600 480 Climbing Gander Center
05:43AM 54.4333 -58.7000 30° Northeast 250 288 27,000 180 Climbing Gander Center
05:44AM 54.5000 -58.6000 41° Northeast 260 299 27,000  Level Gander Center
05:45AM 54.5500 -58.5167 44° Northeast 270 311 27,000  Level Gander Center
05:46AM 54.6000 -58.4333 44° Northeast 270 311 27,000  Level Gander Center
05:47AM 54.6667 -58.3333 41° Northeast 280 322 27,000  Level Gander Center
05:48AM 54.7333 -58.2500 36° Northeast 280 322 27,000  Level Gander Center
05:49AM 54.7833 -58.1500 49° Northeast 280 322 27,000  Level Gander Center
05:50AM 54.8500 -58.0833 30° Northeast 280 322 27,000  Level Gander Center
05:51AM 54.8833 -58.0000 55° Northeast 280 322 27,000  Level Gander Center
05:52AM 54.9500 -57.9000 41° Northeast 280 322 27,000  Level Gander Center
05:53AM 55.0000 -57.8167 44° Northeast 280 322 27,000  Level Gander Center
05:54AM 55.0667 -57.7167 41° Northeast 280 322 27,000  Level Gander Center
05:55AM 55.1167 -57.6333 44° Northeast 280 322 27,000  Level Gander Center
05:56AM 55.1833 -57.5333 41° Northeast 280 322 27,000  Level Gander Center
05:57AM 55.2333 -57.4500 44° Northeast 280 322 27,000  Level Gander Center
05:58AM 55.2833 -57.3500 49° Northeast 280 322 27,000  Level Gander Center
05:59AM 55.3500 -57.2500 40° Northeast 280 322 27,000  Level Gander Center
06:00AM 55.4000 -57.1667 43° Northeast 280 322 27,000  Level Gander Center
06:01AM 55.4667 -57.0667 40° Northeast 280 322 27,000  Level Gander Center
06:02AM 55.5167 -56.9667 49° Northeast 270 311 27,000  Level Gander Center
06:03AM 55.5667 -56.8833 43° Northeast 270 311 27,000  Level Gander Center
06:04AM 55.6167 -56.7833 48° Northeast 270 311 27,000  Level Gander Center
06:05AM 55.6833 -56.6833 40° Northeast 270 311 27,000  Level Gander Center
06:06AM 55.7333 -56.6000 43° Northeast 270 311 27,000  Level Gander Center
06:07AM 55.7833 -56.5000 48° Northeast 280 322 27,000  Level Gander Center
06:08AM 55.5167 -57.0167 45° Northeast 272 313 27,000  Level ETMS Enhanced Traffic Management System
06:08AM 55.8333 -56.4000 48° Northeast 270 311 27,000  Level Gander Center
06:09AM 55.8833 -56.3000 45° Northeast 270 311 27,000  Level Gander Center
06:10AM 55.9333 -56.2167 43° Northeast 270 311 27,000  Level Gander Center
06:11AM 56.0000 -56.1167 40° Northeast 270 311 27,000  Level Gander Center
06:12AM 56.0500 -56.0167 48° Northeast 270 311 27,000  Level Gander Center
06:13AM 56.1000 -55.9500 37° Northeast 270 311 27,000  Level Gander Center
06:14AM 56.1500 -55.8500 48° Northeast 270 311 27,000  Level Gander Center
06:15AM 56.2000 -55.7333 52° Northeast 270 311 27,000  Level Gander Center
06:17AM 56.3000 -55.5667 43° Northeast 270 311 27,000  Level Gander Center
06:18AM 56.3500 -55.4333 56° Northeast 270 311 27,000  Level Gander Center
06:19AM 56.4000 -55.3667 36° Northeast 270 311 27,000  Level Gander Center
06:20AM 56.4667 -55.2667 40° Northeast 260 299 27,000  Level Gander Center
06:21AM 56.5167 -55.2000 36° Northeast 260 299 27,000  Level Gander Center
06:22AM 56.5500 -55.1000 59° Northeast 260 299 27,000  Level Gander Center
06:23AM 56.6167 -55.0000 40° Northeast 260 299 27,000  Level Gander Center
06:24AM 56.6667 -54.9000 48° Northeast 260 299 27,000  Level Gander Center
06:25AM 56.7167 -54.8000 48° Northeast 260 299 27,000  Level Gander Center
06:26AM 56.7667 -54.7000 48° Northeast 270 311 27,000  Level Gander Center
06:27AM 56.8167 -54.6000 48° Northeast 270 311 27,000  Level Gander Center
06:28AM 56.8500 -54.4667 65° Northeast 270 311 27,000  Level Gander Center
06:29AM 56.9167 -54.4000 29° Northeast 270 311 27,000  Level Gander Center
06:30AM 56.9667 -54.3000 47° Northeast 270 311 27,000  Level Gander Center
06:31AM 57.0333 -54.2000 39° Northeast 270 311 27,000  Level Gander Center
06:32AM 57.0667 -54.0667 65° Northeast 270 311 27,000  Level Gander Center
06:33AM 57.1167 -53.9833 42° Northeast 260 299 27,000  Level Gander Center
06:34AM 57.1833 -53.8833 39° Northeast 270 311 27,000  Level Gander Center
06:35AM 57.2167 -53.8167 47° Northeast 270 311 27,000  Level Gander Center
06:36AM 57.2667 -53.7167 47° Northeast 270 311 27,000  Level Gander Center
06:38AM 57.3518 -53.5473 47° Northeast  Level FlightAware Approximate
06:45AM 57.6749 -52.8932 47° Northeast  Level FlightAware Approximate
06:46AM 57.7208 -52.7988 48° Northeast  Level FlightAware Approximate
06:47AM 57.7666 -52.7042 48° Northeast  Level FlightAware Approximate
06:48AM 57.8124 -52.6093 48° Northeast  Level FlightAware Approximate
06:49AM 57.8580 -52.5142 48° Northeast  Level FlightAware Approximate
06:50AM 57.9036 -52.4188 48° Northeast  Level FlightAware Approximate
06:51AM 57.9492 -52.3233 48° Northeast  Level FlightAware Approximate
06:52AM 57.9946 -52.2274 48° Northeast  Level FlightAware Approximate
06:53AM 58.0400 -52.1314 48° Northeast  Level FlightAware Approximate
06:54AM 58.0853 -52.0350 48° Northeast  Level FlightAware Approximate
06:55AM 58.1305 -51.9385 48° Northeast  Level FlightAware Approximate
06:56AM 58.1757 -51.8416 48° Northeast  Level FlightAware Approximate
06:57AM 58.2208 -51.7446 49° Northeast  Level FlightAware Approximate
06:58AM 58.2658 -51.6473 49° Northeast  Level FlightAware Approximate
06:59AM 58.3107 -51.5497 49° Northeast  Level FlightAware Approximate
07:00AM 58.3556 -51.4519 49° Northeast  Level FlightAware Approximate
07:01AM 58.4004 -51.3539 49° Northeast  Level FlightAware Approximate
07:02AM 58.4451 -51.2556 49° Northeast  Level FlightAware Approximate
07:03AM 58.4898 -51.1570 49° Northeast  Level FlightAware Approximate
07:04AM 58.5343 -51.0582 49° Northeast  Level FlightAware Approximate
07:05AM 58.5788 -50.9592 49° Northeast  Level FlightAware Approximate
07:06AM 58.6232 -50.8599 49° Northeast  Level FlightAware Approximate
07:07AM 58.6676 -50.7603 49° Northeast  Level FlightAware Approximate
07:08AM 58.7118 -50.6605 49° Northeast  Level FlightAware Approximate
07:09AM 58.7560 -50.5605 50° Northeast  Level FlightAware Approximate
07:10AM 58.8001 -50.4602 50° Northeast  Level FlightAware Approximate
07:11AM 58.8441 -50.3596 50° Northeast  Level FlightAware Approximate
07:12AM 58.8881 -50.2588 50° Northeast  Level FlightAware Approximate
07:13AM 58.9320 -50.1577 50° Northeast  Level FlightAware Approximate
07:14AM 58.9757 -50.0563 50° Northeast  Level FlightAware Approximate
07:15AM 59.0214 -49.9583 45° Northeast  Level FlightAware Approximate
07:16AM 59.0695 -49.8643 45° Northeast  Level FlightAware Approximate
07:17AM 59.1176 -49.7701 45° Northeast  Level FlightAware Approximate
07:18AM 59.1655 -49.6756 45° Northeast  Level FlightAware Approximate
07:19AM 59.2134 -49.5808 45° Northeast  Level FlightAware Approximate
07:20AM 59.2612 -49.4858 45° Northeast  Level FlightAware Approximate
07:21AM 59.3090 -49.3906 45° Northeast  Level FlightAware Approximate
07:22AM 59.3567 -49.2950 46° Northeast  Level FlightAware Approximate
07:23AM 59.4043 -49.1992 46° Northeast  Level FlightAware Approximate
07:24AM 59.4519 -49.1031 46° Northeast  Level FlightAware Approximate
07:25AM 59.4993 -49.0067 46° Northeast  Level FlightAware Approximate
07:26AM 59.5467 -48.9101 46° Northeast  Level FlightAware Approximate
07:27AM 59.5941 -48.8132 46° Northeast  Level FlightAware Approximate
07:28AM 59.6413 -48.7160 46° Northeast  Level FlightAware Approximate
07:29AM 59.6885 -48.6186 46° Northeast  Level FlightAware Approximate
07:30AM 59.7356 -48.5209 46° Northeast  Level FlightAware Approximate
07:31AM 59.7827 -48.4229 46° Northeast  Level FlightAware Approximate
07:32AM 59.8296 -48.3246 46° Northeast  Level FlightAware Approximate
07:33AM 59.8765 -48.2261 47° Northeast  Level FlightAware Approximate
07:34AM 59.9234 -48.1272 47° Northeast  Level FlightAware Approximate
07:35AM 59.9701 -48.0281 47° Northeast  Level FlightAware Approximate
07:36AM 60.0180 -47.9310 45° Northeast  Level FlightAware Approximate
07:37AM 60.0662 -47.8345 45° Northeast  Level FlightAware Approximate
07:38AM 60.1135 -47.7362 48° Northeast  Level FlightAware Approximate
07:39AM 60.1588 -47.6338 48° Northeast  Level FlightAware Approximate
07:40AM 60.2040 -47.5312 48° Northeast  Level FlightAware Approximate
07:41AM 60.2492 -47.4282 49° Northeast  Level FlightAware Approximate
07:42AM 60.2948 -47.3261 46° Northeast  Level FlightAware Approximate
07:43AM 60.3422 -47.2271 46° Northeast  Level FlightAware Approximate
07:44AM 60.3895 -47.1278 46° Northeast  Level FlightAware Approximate
07:45AM 60.4367 -47.0281 46° Northeast  Level FlightAware Approximate
07:46AM 60.4841 -46.9288 46° Northeast  Level FlightAware Approximate
07:47AM 60.5316 -46.8293 46° Northeast  Level FlightAware Approximate
07:48AM 60.5790 -46.7296 46° Northeast  Level FlightAware Approximate
07:49AM 60.6259 -46.6289 48° Northeast  Level FlightAware Approximate
07:50AM 60.6714 -46.5253 48° Northeast  Level FlightAware Approximate
07:51AM 60.7168 -46.4213 48° Northeast  Level FlightAware Approximate
07:52AM 60.7636 -46.3199 46° Northeast  Level FlightAware Approximate
07:53AM 60.8111 -46.2197 46° Northeast  Level FlightAware Approximate
07:54AM 60.8586 -46.1193 46° Northeast  Level FlightAware Approximate
07:55AM 60.9017 -46.0115 56° Northeast  Level FlightAware Approximate
07:56AM 60.9433 -45.9003 50° Northeast  Level FlightAware Approximate
07:57AM 60.9872 -45.7932 40° Northeast  Level FlightAware Approximate
07:58AM 61.0392 -45.7022 40° Northeast  Level FlightAware Approximate
07:59AM 61.0831 -45.5950 52° Northeast  Level FlightAware Approximate
08:00AM 61.1250 -45.4835 52° Northeast  Level FlightAware Approximate
08:01AM 61.1500 -45.4167 52° Northeast  Level FlightAware Approximate
08:02AM 61.1607 -45.4257 52° Northeast  Level Estimated
08:03AM 61.1607 -45.4257 52° Northeast  Level Estimated
08:04AM 61.1607 -45.4257 52° Northeast  Level Estimated
08:05AM 61.1607 -45.4257 52° Northeast  Level Estimated
08:06AM 61.1607 -45.4257 52° Northeast  Level Estimated
08:07AM 61.1607 -45.4257 52° Northeast  Level Estimated
08:08AM 61.1607 -45.4257 52° Northeast  Level Estimated
08:09AM 61.1607 -45.4257 52° Northeast  Level Estimated
08:10AM 61.1607 -45.4257 52° Northeast  Level Estimated
08:11AM 61.1607 -45.4257 52° Northeast  Level Estimated
08:12AM 61.1607 -45.4257 52° Northeast  Level Estimated
08:13AM 61.1607 -45.4257 52° Northeast  Level Estimated
08:14AM 61.1607 -45.4257 52° Northeast  Level Estimated
08:15AM 61.1607 -45.4257 52° Northeast  Level Estimated
08:16AM 61.1607 -45.4257 52° Northeast  Level Estimated
08:17AM 61.1607 -45.4257 52° Northeast  Level Estimated